sensor_id;sensor_type;location;lat;lon;timestamp;pressure;altitude;pressure_sealevel;temperature;humidity
56414;BME280;42318;48.452;19.526;2023-05-23T00:02:26;98104.16;;;21.84;53.92
56414;BME280;42318;48.452;19.526;2023-05-23T00:09:58;98096.25;;;21.83;53.93
56414;BME280;42318;48.452;19.526;2023-05-23T00:17:29;98086.72;;;21.80;53.78
56414;BME280;42318;48.452;19.526;2023-05-23T00:25:00;98089.72;;;21.79;53.96
56414;BME280;42318;48.452;19.526;2023-05-23T00:32:31;98088.91;;;21.78;53.66
56414;BME280;42318;48.452;19.526;2023-05-23T00:40:02;98085.66;;;21.76;53.69
56414;BME280;42318;48.452;19.526;2023-05-23T00:47:33;98095.75;;;21.76;54.10
56414;BME280;42318;48.452;19.526;2023-05-23T00:55:04;98084.28;;;21.74;53.72
56414;BME280;42318;48.452;19.526;2023-05-23T01:02:42;98090.84;;;21.73;53.87
56414;BME280;42318;48.452;19.526;2023-05-23T01:10:25;98082.94;;;21.71;53.71
56414;BME280;42318;48.452;19.526;2023-05-23T01:18:15;98084.03;;;21.70;53.57
56414;BME280;42318;48.452;19.526;2023-05-23T01:26:06;98086.75;;;21.70;54.11
56414;BME280;42318;48.452;19.526;2023-05-23T01:33:42;98073.13;;;21.65;53.57
56414;BME280;42318;48.452;19.526;2023-05-23T01:41:14;98074.75;;;21.66;53.84
56414;BME280;42318;48.452;19.526;2023-05-23T01:48:45;98072.84;;;21.67;53.63
56414;BME280;42318;48.452;19.526;2023-05-23T01:56:17;98071.47;;;21.64;53.92
56414;BME280;42318;48.452;19.526;2023-05-23T02:03:49;98071.47;;;21.64;53.71
56414;BME280;42318;48.452;19.526;2023-05-23T02:11:20;98053.75;;;21.61;53.67
56414;BME280;42318;48.452;19.526;2023-05-23T02:18:52;98064.66;;;21.61;53.59
56414;BME280;42318;48.452;19.526;2023-05-23T02:26:25;98046.69;;;21.60;53.86
56414;BME280;42318;48.452;19.526;2023-05-23T02:33:57;98057.84;;;21.59;53.75
56414;BME280;42318;48.452;19.526;2023-05-23T02:41:27;98051.59;;;21.58;53.88
56414;BME280;42318;48.452;19.526;2023-05-23T02:48:58;98049.97;;;21.57;53.46
56414;BME280;42318;48.452;19.526;2023-05-23T02:56:29;98043.97;;;21.55;53.67
56414;BME280;42318;48.452;19.526;2023-05-23T03:04:00;98043.97;;;21.55;53.62
56414;BME280;42318;48.452;19.526;2023-05-23T03:11:30;98035.78;;;21.55;53.90
56414;BME280;42318;48.452;19.526;2023-05-23T03:19:01;98026.53;;;21.51;53.80
56414;BME280;42318;48.452;19.526;2023-05-23T03:26:32;98035.25;;;21.53;53.43
56414;BME280;42318;48.452;19.526;2023-05-23T03:34:03;98037.44;;;21.51;53.50
56414;BME280;42318;48.452;19.526;2023-05-23T03:41:37;98030.06;;;21.52;53.49
56414;BME280;42318;48.452;19.526;2023-05-23T03:49:07;98046.44;;;21.52;53.59
56414;BME280;42318;48.452;19.526;2023-05-23T03:56:38;98033.91;;;21.51;53.81
56414;BME280;42318;48.452;19.526;2023-05-23T04:04:09;98032.25;;;21.50;53.70
56414;BME280;42318;48.452;19.526;2023-05-23T04:11:40;98034.16;;;21.49;53.64
56414;BME280;42318;48.452;19.526;2023-05-23T04:19:11;98035.25;;;21.48;53.88
56414;BME280;42318;48.452;19.526;2023-05-23T04:26:41;98032.53;;;21.48;53.73
56414;BME280;42318;48.452;19.526;2023-05-23T04:34:12;98030.63;;;21.49;53.63
56414;BME280;42318;48.452;19.526;2023-05-23T04:41:43;98023.53;;;21.48;53.74
56414;BME280;42318;48.452;19.526;2023-05-23T04:49:15;98020.81;;;21.48;53.68
56414;BME280;42318;48.452;19.526;2023-05-23T04:56:46;98014.84;;;21.46;53.75
56414;BME280;42318;48.452;19.526;2023-05-23T05:04:17;98020.00;;;21.47;53.69
56414;BME280;42318;48.452;19.526;2023-05-23T05:11:48;98017.28;;;21.47;53.70
56414;BME280;42318;48.452;19.526;2023-05-23T05:19:19;98011.00;;;21.47;53.90
56414;BME280;42318;48.452;19.526;2023-05-23T05:26:50;98013.75;;;21.47;53.62
56414;BME280;42318;48.452;19.526;2023-05-23T05:34:21;98004.22;;;21.44;53.81
56414;BME280;42318;48.452;19.526;2023-05-23T05:41:52;98007.47;;;21.46;53.64
56414;BME280;42318;48.452;19.526;2023-05-23T05:49:23;97999.28;;;21.46;54.06
56414;BME280;42318;48.452;19.526;2023-05-23T05:56:54;97997.66;;;21.45;53.70
56414;BME280;42318;48.452;19.526;2023-05-23T06:04:25;97998.47;;;21.46;53.89
56414;BME280;42318;48.452;19.526;2023-05-23T06:11:55;97999.00;;;21.48;54.26
56414;BME280;42318;48.452;19.526;2023-05-23T06:19:26;97988.38;;;21.46;54.19
56414;BME280;42318;48.452;19.526;2023-05-23T06:26:57;97985.66;;;21.46;53.98
56414;BME280;42318;48.452;19.526;2023-05-23T06:34:28;97990.56;;;21.44;54.38
56414;BME280;42318;48.452;19.526;2023-05-23T06:41:59;97991.13;;;21.46;54.29
56414;BME280;42318;48.452;19.526;2023-05-23T06:49:30;97988.13;;;21.48;55.17
56414;BME280;42318;48.452;19.526;2023-05-23T06:57:01;97980.19;;;21.51;55.16
56414;BME280;42318;48.452;19.526;2023-05-23T07:04:32;97970.91;;;21.52;55.12
56414;BME280;42318;48.452;19.526;2023-05-23T07:12:03;97970.66;;;21.54;55.09
56414;BME280;42318;48.452;19.526;2023-05-23T07:19:34;97971.75;;;21.53;54.84
56414;BME280;42318;48.452;19.526;2023-05-23T07:27:05;97970.38;;;21.55;54.81
56414;BME280;42318;48.452;19.526;2023-05-23T07:34:38;97963.28;;;21.54;54.50
56414;BME280;42318;48.452;19.526;2023-05-23T07:42:09;97966.53;;;21.56;54.89
56414;BME280;42318;48.452;19.526;2023-05-23T07:49:40;97966.53;;;21.56;54.37
56414;BME280;42318;48.452;19.526;2023-05-23T07:57:11;97962.72;;;21.57;54.79
56414;BME280;42318;48.452;19.526;2023-05-23T08:04:41;97965.44;;;21.57;54.91
56414;BME280;42318;48.452;19.526;2023-05-23T08:12:13;97966.00;;;21.59;54.99
56414;BME280;42318;48.452;19.526;2023-05-23T08:19:43;97962.16;;;21.60;54.38
56414;BME280;42318;48.452;19.526;2023-05-23T08:27:14;97959.16;;;21.62;54.23
56414;BME280;42318;48.452;19.526;2023-05-23T08:34:45;97965.44;;;21.62;54.89
56414;BME280;42318;48.452;19.526;2023-05-23T08:42:16;97963.25;;;21.64;54.98
56414;BME280;42318;48.452;19.526;2023-05-23T08:49:47;97962.16;;;21.66;55.11
56414;BME280;42318;48.452;19.526;2023-05-23T08:57:18;97957.78;;;21.64;55.15
56414;BME280;42318;48.452;19.526;2023-05-23T09:04:49;97960.25;;;21.71;55.14
56414;BME280;42318;48.452;19.526;2023-05-23T09:12:20;97956.41;;;21.72;55.13
56414;BME280;42318;48.452;19.526;2023-05-23T09:19:53;97941.41;;;21.75;55.19
56414;BME280;42318;48.452;19.526;2023-05-23T09:27:24;97946.84;;;21.80;54.61
56414;BME280;42318;48.452;19.526;2023-05-23T09:34:56;97932.63;;;21.83;54.76
56414;BME280;42318;48.452;19.526;2023-05-23T09:42:31;97930.72;;;21.83;54.77
56414;BME280;42318;48.452;19.526;2023-05-23T09:50:05;97915.44;;;21.87;54.80
56414;BME280;42318;48.452;19.526;2023-05-23T09:57:41;97900.16;;;21.86;54.64
56414;BME280;42318;48.452;19.526;2023-05-23T10:05:28;97900.94;;;21.92;54.17
56414;BME280;42318;48.452;19.526;2023-05-23T10:13:04;97869.56;;;21.94;52.93
56414;BME280;42318;48.452;19.526;2023-05-23T10:20:38;97878.22;;;22.07;53.03
56414;BME280;42318;48.452;19.526;2023-05-23T10:28:11;97863.25;;;21.99;53.94
56414;BME280;42318;48.452;19.526;2023-05-23T10:36:21;97871.09;;;22.11;53.43
56414;BME280;42318;48.452;19.526;2023-05-23T10:44:03;97881.78;;;22.07;53.83
56414;BME280;42318;48.452;19.526;2023-05-23T10:51:37;97864.59;;;22.07;54.14
56414;BME280;42318;48.452;19.526;2023-05-23T10:59:18;97861.63;;;22.03;53.95
56414;BME280;42318;48.452;19.526;2023-05-23T11:06:52;97864.59;;;22.02;53.85
56414;BME280;42318;48.452;19.526;2023-05-23T11:22:02;97838.69;;;22.04;53.96
56414;BME280;42318;48.452;19.526;2023-05-23T11:29:35;97838.69;;;22.04;54.03
56414;BME280;42318;48.452;19.526;2023-05-23T11:37:06;97829.69;;;21.99;54.54
56414;BME280;42318;48.452;19.526;2023-05-23T11:44:37;97835.44;;;21.97;54.55
56414;BME280;42318;48.452;19.526;2023-05-23T11:52:08;97822.38;;;21.94;54.17
56414;BME280;42318;48.452;19.526;2023-05-23T11:59:39;97830.84;;;21.92;54.20
56414;BME280;42318;48.452;19.526;2023-05-23T12:07:10;97824.28;;;21.93;54.31
56414;BME280;42318;48.452;19.526;2023-05-23T12:14:41;97831.09;;;21.96;54.65
56414;BME280;42318;48.452;19.526;2023-05-23T12:22:14;97835.97;;;21.99;54.58
56414;BME280;42318;48.452;19.526;2023-05-23T12:29:49;97836.22;;;22.03;55.00
56414;BME280;42318;48.452;19.526;2023-05-23T12:37:21;97843.88;;;22.06;55.46
56414;BME280;42318;48.452;19.526;2023-05-23T12:44:53;97849.03;;;22.07;55.25
56414;BME280;42318;48.452;19.526;2023-05-23T12:52:24;97860.22;;;22.06;55.16
56414;BME280;42318;48.452;19.526;2023-05-23T12:59:58;97858.84;;;22.08;54.82
56414;BME280;42318;48.452;19.526;2023-05-23T13:07:29;97846.03;;;22.09;55.22
56414;BME280;42318;48.452;19.526;2023-05-23T13:14:59;97834.81;;;22.10;55.18
56414;BME280;42318;48.452;19.526;2023-05-23T13:22:30;97839.22;;;22.11;55.17
56414;BME280;42318;48.452;19.526;2023-05-23T13:30:01;97802.38;;;22.09;54.83
56414;BME280;42318;48.452;19.526;2023-05-23T13:37:32;97810.81;;;22.12;54.89
56414;BME280;42318;48.452;19.526;2023-05-23T13:45:03;97800.97;;;22.16;55.02
56414;BME280;42318;48.452;19.526;2023-05-23T13:52:34;97796.31;;;22.17;55.11
56414;BME280;42318;48.452;19.526;2023-05-23T14:00:06;97792.78;;;22.16;54.92
56414;BME280;42318;48.452;19.526;2023-05-23T14:07:39;97774.78;;;22.15;55.00
56414;BME280;42318;48.452;19.526;2023-05-23T14:15:10;97769.91;;;22.12;54.90
56414;BME280;42318;48.452;19.526;2023-05-23T14:22:41;97782.44;;;22.13;55.15
56414;BME280;42318;48.452;19.526;2023-05-23T14:30:12;97793.66;;;22.12;54.73
56414;BME280;42318;48.452;19.526;2023-05-23T14:37:44;97797.44;;;22.11;54.98
56414;BME280;42318;48.452;19.526;2023-05-23T14:45:15;97783.00;;;22.10;54.89
56414;BME280;42318;48.452;19.526;2023-05-23T14:52:45;97779.72;;;22.08;54.82
56414;BME280;42318;48.452;19.526;2023-05-23T15:00:17;97775.38;;;22.07;54.65
56414;BME280;42318;48.452;19.526;2023-05-23T15:07:48;97795.03;;;22.04;54.73
56414;BME280;42318;48.452;19.526;2023-05-23T15:15:20;97785.22;;;22.03;54.71
56414;BME280;42318;48.452;19.526;2023-05-23T15:22:52;97794.22;;;22.04;54.84
56414;BME280;42318;48.452;19.526;2023-05-23T15:30:23;97793.66;;;22.02;54.83
56414;BME280;42318;48.452;19.526;2023-05-23T15:37:54;97817.69;;;22.00;55.04
56414;BME280;42318;48.452;19.526;2023-05-23T15:45:25;97816.88;;;21.99;54.70
56414;BME280;42318;48.452;19.526;2023-05-23T15:52:55;97817.16;;;21.98;54.85
56414;BME280;42318;48.452;19.526;2023-05-23T16:00:26;97827.53;;;21.95;54.47
56414;BME280;42318;48.452;19.526;2023-05-23T16:07:57;97836.00;;;21.94;54.69
56414;BME280;42318;48.452;19.526;2023-05-23T16:15:28;97848.06;;;21.88;54.53
56414;BME280;42318;48.452;19.526;2023-05-23T16:22:59;97851.84;;;21.92;54.40
56414;BME280;42318;48.452;19.526;2023-05-23T16:30:31;97842.84;;;21.91;54.69
56414;BME280;42318;48.452;19.526;2023-05-23T16:38:01;97868.22;;;21.92;54.76
56414;BME280;42318;48.452;19.526;2023-05-23T16:45:32;97887.31;;;21.92;54.63
56414;BME280;42318;48.452;19.526;2023-05-23T16:53:03;97858.97;;;21.88;54.95
56414;BME280;42318;48.452;19.526;2023-05-23T17:00:34;97867.16;;;21.88;54.70
56414;BME280;42318;48.452;19.526;2023-05-23T17:08:05;97860.06;;;21.87;54.92
56414;BME280;42318;48.452;19.526;2023-05-23T17:15:36;97872.06;;;21.86;54.80
56414;BME280;42318;48.452;19.526;2023-05-23T17:23:07;97882.16;;;21.85;54.58
56414;BME280;42318;48.452;19.526;2023-05-23T17:30:40;97892.25;;;21.85;54.78
56414;BME280;42318;48.452;19.526;2023-05-23T17:38:11;97916.00;;;21.84;54.59
56414;BME280;42318;48.452;19.526;2023-05-23T17:45:41;97952.25;;;21.85;54.95
56414;BME280;42318;48.452;19.526;2023-05-23T17:53:12;97958.81;;;21.84;54.63
56414;BME280;42318;48.452;19.526;2023-05-23T18:00:44;97955.28;;;21.83;54.77
56414;BME280;42318;48.452;19.526;2023-05-23T18:08:15;97970.00;;;21.82;54.91
56414;BME280;42318;48.452;19.526;2023-05-23T18:15:45;97973.00;;;21.81;54.58
56414;BME280;42318;48.452;19.526;2023-05-23T18:23:16;97994.00;;;21.80;54.43
56414;BME280;42318;48.452;19.526;2023-05-23T18:30:47;98032.47;;;21.79;54.97
56414;BME280;42318;48.452;19.526;2023-05-23T18:38:18;98051.28;;;21.80;54.64
56414;BME280;42318;48.452;19.526;2023-05-23T18:45:49;98046.91;;;21.79;54.70
56414;BME280;42318;48.452;19.526;2023-05-23T18:53:20;98037.09;;;21.78;54.80
56414;BME280;42318;48.452;19.526;2023-05-23T19:00:51;98040.38;;;21.75;54.61
56414;BME280;42318;48.452;19.526;2023-05-23T19:08:24;98055.66;;;21.76;54.86
56414;BME280;42318;48.452;19.526;2023-05-23T19:15:55;98063.03;;;21.76;54.81
56414;BME280;42318;48.452;19.526;2023-05-23T19:23:26;98070.66;;;21.74;54.65
56414;BME280;42318;48.452;19.526;2023-05-23T19:30:57;98066.84;;;21.75;54.68
56414;BME280;42318;48.452;19.526;2023-05-23T19:38:28;98059.75;;;21.74;55.03
56414;BME280;42318;48.452;19.526;2023-05-23T19:45:59;98060.84;;;21.73;54.96
56414;BME280;42318;48.452;19.526;2023-05-23T19:53:29;98055.13;;;21.74;54.77
56414;BME280;42318;48.452;19.526;2023-05-23T20:01:01;98051.03;;;21.72;54.75
56414;BME280;42318;48.452;19.526;2023-05-23T20:08:31;98056.50;;;21.72;54.79
56414;BME280;42318;48.452;19.526;2023-05-23T20:16:02;98048.28;;;21.67;54.38
56414;BME280;42318;48.452;19.526;2023-05-23T20:23:33;98036.88;;;21.70;54.72
56414;BME280;42318;48.452;19.526;2023-05-23T20:31:04;98033.56;;;21.68;54.46
56414;BME280;42318;48.452;19.526;2023-05-23T20:38:35;98036.06;;;21.69;54.60
56414;BME280;42318;48.452;19.526;2023-05-23T20:46:06;98015.84;;;21.65;54.54
56414;BME280;42318;48.452;19.526;2023-05-23T20:53:39;98011.75;;;21.68;54.84
56414;BME280;42318;48.452;19.526;2023-05-23T21:01:11;98010.13;;;21.67;54.75
56414;BME280;42318;48.452;19.526;2023-05-23T21:08:42;97995.13;;;21.64;54.87
56414;BME280;42318;48.452;19.526;2023-05-23T21:16:12;97989.16;;;21.62;54.75
56414;BME280;42318;48.452;19.526;2023-05-23T21:23:43;98000.59;;;21.64;54.76
56414;BME280;42318;48.452;19.526;2023-05-23T21:31:14;97999.78;;;21.63;54.83
56414;BME280;42318;48.452;19.526;2023-05-23T21:38:45;97989.44;;;21.60;54.61
56414;BME280;42318;48.452;19.526;2023-05-23T21:46:17;97987.25;;;21.62;54.81
56414;BME280;42318;48.452;19.526;2023-05-23T21:53:48;97971.97;;;21.61;54.57
56414;BME280;42318;48.452;19.526;2023-05-23T22:01:19;97976.34;;;21.62;54.68
56414;BME280;42318;48.452;19.526;2023-05-23T22:08:50;97964.63;;;21.62;54.42
56414;BME280;42318;48.452;19.526;2023-05-23T22:16:21;97954.84;;;21.51;54.61
56414;BME280;42318;48.452;19.526;2023-05-23T22:23:52;97964.34;;;21.58;54.53
56414;BME280;42318;48.452;19.526;2023-05-23T22:31:23;97949.63;;;21.59;54.64
56414;BME280;42318;48.452;19.526;2023-05-23T22:38:54;97953.44;;;21.58;54.58
56414;BME280;42318;48.452;19.526;2023-05-23T22:46:25;97949.91;;;21.58;54.46
56414;BME280;42318;48.452;19.526;2023-05-23T22:53:57;97931.09;;;21.56;54.86
56414;BME280;42318;48.452;19.526;2023-05-23T23:01:27;97930.00;;;21.57;54.70
56414;BME280;42318;48.452;19.526;2023-05-23T23:08:59;97932.19;;;21.55;54.67
56414;BME280;42318;48.452;19.526;2023-05-23T23:16:30;97949.38;;;21.56;54.45
56414;BME280;42318;48.452;19.526;2023-05-23T23:24:01;97946.94;;;21.54;54.56
56414;BME280;42318;48.452;19.526;2023-05-23T23:31:32;97937.13;;;21.53;54.60
56414;BME280;42318;48.452;19.526;2023-05-23T23:39:03;97947.22;;;21.53;54.39
56414;BME280;42318;48.452;19.526;2023-05-23T23:46:33;97945.03;;;21.50;54.48
56414;BME280;42318;48.452;19.526;2023-05-23T23:54:04;97955.66;;;21.51;54.48
